Terminal Aerodrome Forecast
Issued by NWS Sioux Falls, SD

Home | Current Version | Previous Version | Text Only | Print | Product List | Glossary On
Versions: 1 2 3 4 5 6 7 8 9 10 11 12 13 14 15 16 17 18 19 20
000
FTUS43 KFSD 271148
TAFFSD
TAF
KFSD 271148Z 2712/2812 11005KT P6SM SCT007 OVC150
     FM271500 13010KT P6SM SCT015 BKN150
     FM271800 15015G22KT P6SM SCT035 SCT150
     FM280100 15016G23KT P6SM SCT070 BKN200
     FM280900 21013KT P6SM BKN080=

USA.gov is the U.S. government's official web portal to all federal, state and local government web resources and services.